N208BA KFAY-KRDU
Flight info
| Callsign | N208BA |
|---|---|
| Flight time | N/A |
| Altitude | 7000 |
| Route | HOKMU V136 GURBE |
| Aircraft | C208/L-SDFGR/C |
Departure
| Time | 2026-04-21 21:06 |
|---|---|
| Airport | Fayetteville Regional Airport - Grannis Field (KFAY) |
Arrival
| Time | N/A |
|---|---|
| Airport | Raleigh-Durham International Airport (KRDU) |
| Time | Latitude | Longitude | Altitude | Speed | Heading |
|---|---|---|---|---|---|
| 2026-04-21 20:51 | 34.99199 | -78.88405 | 196 ft | 0 kts | 209° |
| 2026-04-21 21:01 | 34.99189 | -78.88411 | 200 ft | 6 kts | 200° |
| 2026-04-21 21:01 | 34.99131 | -78.88350 | 192 ft | 16 kts | 184° |
| 2026-04-21 21:01 | 34.99031 | -78.88420 | 192 ft | 18 kts | 210° |
| 2026-04-21 21:02 | 34.98903 | -78.88513 | 188 ft | 21 kts | 211° |
| 2026-04-21 21:02 | 34.98808 | -78.88579 | 194 ft | 16 kts | 209° |
| 2026-04-21 21:02 | 34.98691 | -78.88666 | 188 ft | 16 kts | 211° |
| 2026-04-21 21:02 | 34.98571 | -78.88753 | 189 ft | 17 kts | 210° |
| 2026-04-21 21:03 | 34.98501 | -78.88773 | 193 ft | 0 kts | 143° |
| 2026-04-21 21:04 | 34.98495 | -78.88766 | 189 ft | 6 kts | 129° |
| 2026-04-21 21:05 | 34.98485 | -78.88666 | 194 ft | 19 kts | 50° |
| 2026-04-21 21:05 | 34.98716 | -78.88493 | 188 ft | 64 kts | 31° |
| 2026-04-21 21:05 | 34.99159 | -78.88176 | 330 ft | 80 kts | 30° |
| 2026-04-21 21:05 | 34.99673 | -78.87789 | 490 ft | 100 kts | 30° |
| 2026-04-21 21:06 | 35.00318 | -78.87327 | 850 ft | 111 kts | 31° |
| 2026-04-21 21:06 | 35.00991 | -78.86835 | 1280 ft | 117 kts | 31° |
| 2026-04-21 21:06 | 35.01683 | -78.86306 | 1749 ft | 117 kts | 22° |
| 2026-04-21 21:06 | 35.02422 | -78.86486 | 2242 ft | 112 kts | 316° |
| 2026-04-21 21:07 | 35.03130 | -78.86794 | 2702 ft | 113 kts | 10° |
| 2026-04-21 21:07 | 35.03906 | -78.86689 | 3167 ft | 111 kts | 359° |
| 2026-04-21 21:07 | 35.04678 | -78.86654 | 3627 ft | 111 kts | 2° |
| 2026-04-21 21:07 | 35.05435 | -78.86593 | 4072 ft | 108 kts | 1° |
| 2026-04-21 21:08 | 35.06170 | -78.86531 | 4520 ft | 103 kts | 1° |
| 2026-04-21 21:08 | 35.06869 | -78.86473 | 4972 ft | 98 kts | 360° |
| 2026-04-21 21:08 | 35.07527 | -78.86417 | 5393 ft | 91 kts | 359° |
| 2026-04-21 21:08 | 35.08128 | -78.86366 | 5818 ft | 82 kts | 359° |
| 2026-04-21 21:09 | 35.08658 | -78.86322 | 6239 ft | 70 kts | 358° |
| 2026-04-21 21:09 | 35.09089 | -78.86291 | 6598 ft | 57 kts | 355° |
| 2026-04-21 21:09 | 35.09536 | -78.86253 | 6765 ft | 71 kts | 359° |
| 2026-04-21 21:09 | 35.10067 | -78.86204 | 6981 ft | 83 kts | 360° |
| 2026-04-21 21:10 | 35.10735 | -78.86144 | 7044 ft | 112 kts | 0° |
| 2026-04-21 21:10 | 35.11619 | -78.86063 | 7001 ft | 141 kts | 1° |
| 2026-04-21 21:10 | 35.12651 | -78.85970 | 6986 ft | 155 kts | 1° |
| 2026-04-21 21:10 | 35.13760 | -78.85874 | 6977 ft | 163 kts | 1° |
| 2026-04-21 21:11 | 35.14891 | -78.85779 | 6971 ft | 167 kts | 1° |
| 2026-04-21 21:11 | 35.16056 | -78.85679 | 6975 ft | 169 kts | 1° |
| 2026-04-21 21:11 | 35.17231 | -78.85578 | 6973 ft | 170 kts | 1° |
| 2026-04-21 21:11 | 35.18410 | -78.85475 | 6975 ft | 170 kts | 1° |
| 2026-04-21 21:12 | 35.19592 | -78.85361 | 6974 ft | 171 kts | 2° |
| 2026-04-21 21:12 | 35.20775 | -78.85236 | 6975 ft | 171 kts | 2° |
| 2026-04-21 21:12 | 35.21960 | -78.85112 | 6975 ft | 170 kts | 2° |
| 2026-04-21 21:12 | 35.23126 | -78.84991 | 6973 ft | 166 kts | 2° |
| 2026-04-21 21:13 | 35.24272 | -78.84871 | 6975 ft | 165 kts | 2° |
| 2026-04-21 21:13 | 35.25285 | -78.84767 | 6973 ft | 163 kts | 1° |